createdAt,value
2024-03-06T00:02:21.472Z,6.96
2024-03-06T00:04:48.045Z,6.92
2024-03-06T00:07:14.508Z,7.03
2024-03-06T00:09:40.945Z,6.80
2024-03-06T00:12:07.461Z,6.93
2024-03-06T00:14:34.157Z,7.03
2024-03-06T00:17:00.753Z,6.99
2024-03-06T00:19:27.286Z,7.04
2024-03-06T00:21:53.662Z,6.84
2024-03-06T00:24:20.348Z,6.83
2024-03-06T00:26:48.139Z,6.75
2024-03-06T00:29:15.735Z,6.77
2024-03-06T00:31:46.323Z,6.48
2024-03-06T00:36:56.714Z,6.44
2024-03-06T00:39:23.127Z,6.51
2024-03-06T00:41:49.589Z,6.20
2024-03-06T00:44:16.553Z,6.10
2024-03-06T00:46:43.169Z,5.98
2024-03-06T00:49:09.599Z,6.08
2024-03-06T00:51:44.702Z,5.98
2024-03-06T00:54:14.945Z,5.92
2024-03-06T00:56:41.348Z,5.86
2024-03-06T00:59:08.024Z,5.78
2024-03-06T01:01:34.701Z,5.73
2024-03-06T01:04:03.118Z,5.66
2024-03-06T01:06:29.555Z,5.85
2024-03-06T01:08:58.408Z,5.71
2024-03-06T01:11:25.446Z,5.61
2024-03-06T01:13:51.959Z,5.48
2024-03-06T01:16:18.431Z,5.38
2024-03-06T01:18:45.190Z,5.42
2024-03-06T01:21:11.629Z,5.39
2024-03-06T01:23:38.068Z,5.26
2024-03-06T01:26:04.786Z,5.23
2024-03-06T01:28:31.312Z,5.25
2024-03-06T01:31:00.080Z,5.26
2024-03-06T01:33:27.118Z,5.40
2024-03-06T01:35:53.477Z,5.35
2024-03-06T01:38:19.929Z,5.46
2024-03-06T01:40:46.646Z,5.26
2024-03-06T01:43:24.805Z,5.28
2024-03-06T01:45:52.683Z,5.28
2024-03-06T01:48:22.617Z,5.30
2024-03-06T01:50:49.073Z,5.42
2024-03-06T01:53:19.367Z,5.37
2024-03-06T01:55:46.471Z,5.14
2024-03-06T01:58:13.136Z,5.15
2024-03-06T02:00:39.721Z,5.27
2024-03-06T02:03:06.778Z,5.40
2024-03-06T02:05:34.020Z,5.47
2024-03-06T02:08:00.895Z,5.54
2024-03-06T02:10:28.361Z,5.35
2024-03-06T02:12:55.509Z,5.33
2024-03-06T02:15:22.147Z,5.38
2024-03-06T02:17:48.585Z,5.39
2024-03-06T02:20:16.913Z,5.47
2024-03-06T02:22:43.672Z,5.62
2024-03-06T02:25:10.534Z,5.75
2024-03-06T02:27:37.454Z,5.65
2024-03-06T02:30:04.144Z,5.65
2024-03-06T02:32:31.736Z,5.74
2024-03-06T02:34:58.201Z,5.71
2024-03-06T02:37:25.755Z,5.74
2024-03-06T02:39:52.234Z,5.67
2024-03-06T02:42:18.592Z,5.67
2024-03-06T02:44:45.089Z,5.73
2024-03-06T02:47:11.554Z,5.80
2024-03-06T02:49:38.095Z,5.69
2024-03-06T02:52:04.736Z,5.65
2024-03-06T02:54:31.308Z,5.74
2024-03-06T02:56:57.722Z,5.76
2024-03-06T02:59:25.057Z,5.71
2024-03-06T03:01:51.604Z,5.61
2024-03-06T03:04:18.350Z,5.47
2024-03-06T03:06:44.766Z,5.31
2024-03-06T03:09:12.954Z,5.25
2024-03-06T03:11:39.477Z,5.15
2024-03-06T03:14:05.988Z,5.05
2024-03-06T03:16:33.465Z,5.07
2024-03-06T03:18:59.907Z,4.91
2024-03-06T03:21:26.351Z,4.86
2024-03-06T03:23:52.721Z,4.77
2024-03-06T03:26:19.304Z,4.80
2024-03-06T03:28:46.112Z,4.83
2024-03-06T03:31:12.807Z,4.92
2024-03-06T03:33:42.766Z,4.96
2024-03-06T03:36:10.053Z,4.94
2024-03-06T03:38:39.497Z,5.04
2024-03-06T03:41:10.170Z,5.30
2024-03-06T03:43:36.961Z,5.29
2024-03-06T03:46:05.292Z,5.23
2024-03-06T03:48:32.749Z,5.02
2024-03-06T03:50:59.141Z,4.94
2024-03-06T03:53:25.637Z,4.85
2024-03-06T03:55:52.112Z,4.92
2024-03-06T03:58:18.578Z,4.91
2024-03-06T04:00:45.739Z,5.12
2024-03-06T04:03:12.185Z,5.23
2024-03-06T04:05:38.629Z,4.90
2024-03-06T04:08:07.517Z,4.91
2024-03-06T04:10:34.049Z,5.01
2024-03-06T04:13:00.942Z,5.21
2024-03-06T04:15:27.886Z,5.10
2024-03-06T04:17:54.325Z,5.07
2024-03-06T04:20:20.793Z,5.08
2024-03-06T04:22:49.027Z,5.12
2024-03-06T04:25:15.561Z,5.06
2024-03-06T04:27:41.943Z,4.99
2024-03-06T04:30:09.106Z,5.04
2024-03-06T04:32:35.544Z,5.06
2024-03-06T04:35:02.198Z,4.89
2024-03-06T04:37:30.394Z,5.16
2024-03-06T04:39:56.841Z,4.99
2024-03-06T04:42:23.282Z,5.11
2024-03-06T04:44:49.754Z,5.12
2024-03-06T04:47:16.429Z,5.05
2024-03-06T04:49:43.635Z,4.97
2024-03-06T04:52:10.310Z,4.91
2024-03-06T04:54:36.727Z,5.18
2024-03-06T04:57:03.885Z,5.25
2024-03-06T04:59:30.320Z,5.23
2024-03-06T05:01:56.904Z,5.17
2024-03-06T05:59:09.127Z,4.19
2024-03-06T06:01:36.046Z,4.05
2024-03-06T06:04:05.449Z,4.20
2024-03-06T06:06:34.234Z,4.24
2024-03-06T06:09:00.641Z,4.36
2024-03-06T06:11:27.140Z,4.49
2024-03-06T06:13:53.551Z,4.40
2024-03-06T06:16:19.964Z,4.47
2024-03-06T06:18:46.352Z,4.44
2024-03-06T06:21:12.883Z,4.41
2024-03-06T06:23:39.355Z,4.50
2024-03-06T06:26:06.277Z,4.52
2024-03-06T06:28:32.693Z,4.79
2024-03-06T06:30:59.176Z,5.09
2024-03-06T06:33:25.586Z,5.01
2024-03-06T06:35:52.960Z,4.95
2024-03-06T06:38:19.374Z,4.98
2024-03-06T06:40:45.864Z,4.93
2024-03-06T06:43:12.238Z,5.13
2024-03-06T06:45:39.252Z,5.26
2024-03-06T06:48:06.096Z,5.26
2024-03-06T06:50:34.526Z,5.50
2024-03-06T06:53:01.472Z,5.56
2024-03-06T06:55:28.007Z,5.11
2024-03-06T06:57:54.888Z,5.14
2024-03-06T07:00:23.764Z,5.12
2024-03-06T07:02:50.595Z,5.04
2024-03-06T07:05:17.175Z,5.29
2024-03-06T07:07:43.592Z,5.35
2024-03-06T07:10:10.406Z,5.20
2024-03-06T07:12:37.282Z,5.22
2024-03-06T07:15:04.120Z,5.24
2024-03-06T07:17:30.561Z,5.31
2024-03-06T07:19:57.856Z,5.31
2024-03-06T07:22:24.528Z,5.50
2024-03-06T07:24:50.982Z,5.56
2024-03-06T07:27:17.473Z,5.74
2024-03-06T07:29:43.901Z,5.86
2024-03-06T07:32:10.656Z,5.85
2024-03-06T07:34:37.136Z,5.82
2024-03-06T07:37:06.084Z,6.15
2024-03-06T07:39:33.526Z,6.16
2024-03-06T07:41:59.927Z,6.24
2024-03-06T07:44:26.408Z,6.31
2024-03-06T07:46:54.782Z,6.38
2024-03-06T07:49:23.018Z,6.54
2024-03-06T07:51:49.695Z,6.47
2024-03-06T07:54:16.150Z,6.61
2024-03-06T07:56:42.756Z,6.58
2024-03-06T07:59:09.919Z,6.78
2024-03-06T08:01:36.482Z,6.79
2024-03-06T08:04:03.253Z,6.87
2024-03-06T08:06:30.560Z,7.05
2024-03-06T08:08:58.512Z,7.15
2024-03-06T08:11:26.382Z,7.38
2024-03-06T08:14:04.034Z,7.28
2024-03-06T08:16:33.709Z,7.57
2024-03-06T08:19:01.867Z,7.37
2024-03-06T08:21:29.043Z,7.97
2024-03-06T08:23:55.492Z,7.45
2024-03-06T08:26:23.969Z,7.90
2024-03-06T08:28:50.468Z,7.50
2024-03-06T08:31:16.863Z,7.70
2024-03-06T08:33:44.532Z,7.72
2024-03-06T08:36:11.285Z,7.76
2024-03-06T08:38:37.706Z,7.85
2024-03-06T08:41:04.290Z,8.37
2024-03-06T08:43:30.694Z,7.88
2024-03-06T08:45:57.099Z,8.16
2024-03-06T08:48:23.549Z,8.26
2024-03-06T08:50:50.064Z,8.54
2024-03-06T08:53:17.165Z,8.55
2024-03-06T08:55:43.602Z,8.85
2024-03-06T08:58:10.117Z,8.74
2024-03-06T09:00:36.526Z,8.64
2024-03-06T09:03:03.039Z,8.70
2024-03-06T09:05:29.564Z,8.75
2024-03-06T09:08:00.590Z,8.94
2024-03-06T09:10:28.733Z,9.16
2024-03-06T09:12:55.168Z,9.11
2024-03-06T09:15:21.556Z,8.98
2024-03-06T09:17:48.522Z,9.15
2024-03-06T09:20:17.124Z,9.13
2024-03-06T09:22:44.051Z,9.31
2024-03-06T09:25:13.414Z,9.44
2024-03-06T09:27:39.888Z,9.80
2024-03-06T09:30:07.073Z,9.85
2024-03-06T09:32:34.044Z,9.86
2024-03-06T09:35:00.854Z,9.86
2024-03-06T09:37:28.561Z,9.76
2024-03-06T09:39:54.956Z,10.21
2024-03-06T09:42:21.568Z,10.35
2024-03-06T09:44:48.983Z,10.49
2024-03-06T09:47:19.476Z,10.85
2024-03-06T09:49:45.937Z,10.38
2024-03-06T09:52:12.578Z,10.47
2024-03-06T09:54:40.556Z,10.61
2024-03-06T09:57:07.209Z,10.68
2024-03-06T09:59:34.202Z,10.90
2024-03-06T10:02:03.881Z,11.16
2024-03-06T10:04:33.539Z,11.27
2024-03-06T10:07:01.249Z,11.67
2024-03-06T10:09:28.465Z,11.40
2024-03-06T10:11:57.397Z,11.33
2024-03-06T10:14:27.130Z,11.12
2024-03-06T10:17:00.838Z,11.39
2024-03-06T10:19:29.485Z,11.67
2024-03-06T10:21:58.067Z,11.57
2024-03-06T10:24:30.749Z,12.02
2024-03-06T10:26:59.843Z,11.77
2024-03-06T10:29:28.284Z,12.00
2024-03-06T10:31:56.868Z,11.88
2024-03-06T10:34:25.540Z,12.48
2024-03-06T10:36:56.055Z,12.24
2024-03-06T10:39:23.251Z,12.28
2024-03-06T10:41:55.559Z,12.41
2024-03-06T10:44:25.335Z,12.27
2024-03-06T10:47:01.158Z,12.37
2024-03-06T10:49:29.081Z,12.26
2024-03-06T10:51:59.454Z,12.32
2024-03-06T10:54:31.021Z,12.16
2024-03-06T10:56:57.756Z,12.32
2024-03-06T10:59:28.859Z,12.31
2024-03-06T11:02:01.858Z,12.32
2024-03-06T11:04:31.217Z,12.19
2024-03-06T11:07:00.500Z,12.22
2024-03-06T11:09:27.905Z,11.78
2024-03-06T11:11:56.328Z,12.14
2024-03-06T11:14:23.951Z,12.34
2024-03-06T11:16:59.956Z,12.75
2024-03-06T11:19:28.306Z,13.02
2024-03-06T11:21:54.797Z,13.36
2024-03-06T11:24:34.559Z,13.30
2024-03-06T11:27:06.521Z,12.94
2024-03-06T11:30:17.334Z,12.81
2024-03-06T11:33:00.322Z,12.65
2024-03-06T11:35:29.192Z,12.98
2024-03-06T11:37:56.016Z,12.80
2024-03-06T11:40:26.324Z,12.43
2024-03-06T11:42:53.379Z,12.53
2024-03-06T11:45:26.005Z,12.77
2024-03-06T11:48:18.339Z,12.87
2024-03-06T11:50:45.764Z,12.88
2024-03-06T11:53:14.047Z,12.95
2024-03-06T11:55:40.555Z,12.96
2024-03-06T11:58:09.105Z,12.66
2024-03-06T12:00:35.536Z,12.72
2024-03-06T12:03:02.014Z,12.86
2024-03-06T12:05:28.955Z,12.91
2024-03-06T12:07:55.556Z,13.16
2024-03-06T12:10:21.998Z,13.22
2024-03-06T12:12:48.610Z,13.27
2024-03-06T12:15:16.515Z,13.25
2024-03-06T12:17:47.806Z,13.48
2024-03-06T12:20:17.485Z,13.89
2024-03-06T12:22:51.624Z,13.39
2024-03-06T12:25:23.145Z,13.40
2024-03-06T12:27:50.751Z,13.37
2024-03-06T12:30:21.757Z,13.37
2024-03-06T12:32:58.959Z,13.58
2024-03-06T12:35:27.238Z,13.40
2024-03-06T12:37:54.181Z,13.45
2024-03-06T12:40:21.138Z,13.41
2024-03-06T12:42:47.541Z,13.41
2024-03-06T12:45:16.954Z,13.49
2024-03-06T12:47:44.491Z,13.50
2024-03-06T12:50:11.808Z,13.73
2024-03-06T12:52:39.018Z,13.42
2024-03-06T12:55:08.827Z,13.33
2024-03-06T12:57:35.485Z,13.30
2024-03-06T13:00:02.033Z,13.49
2024-03-06T13:02:28.475Z,13.60
2024-03-06T13:04:55.067Z,13.79
2024-03-06T13:07:21.475Z,13.34
2024-03-06T13:09:47.912Z,13.31
2024-03-06T13:12:14.445Z,13.30
2024-03-06T13:14:40.958Z,13.36
2024-03-06T13:17:07.572Z,13.31
2024-03-06T13:19:34.072Z,13.13
2024-03-06T13:22:03.631Z,12.94
2024-03-06T13:24:31.974Z,12.63
2024-03-06T13:26:58.503Z,12.48
2024-03-06T13:29:24.932Z,12.37
2024-03-06T13:31:51.393Z,12.41
2024-03-06T13:34:17.789Z,12.44
2024-03-06T13:36:44.749Z,12.46
2024-03-06T13:39:11.261Z,12.47
2024-03-06T13:41:37.916Z,12.49
2024-03-06T13:44:04.440Z,12.54
2024-03-06T13:46:31.090Z,12.51
2024-03-06T13:48:57.507Z,12.60
2024-03-06T13:51:23.962Z,12.76
2024-03-06T13:53:50.454Z,12.91
2024-03-06T13:56:17.373Z,12.92
2024-03-06T13:58:43.840Z,13.03
2024-03-06T14:01:10.336Z,12.98
2024-03-06T14:03:40.012Z,13.03
2024-03-06T14:06:08.309Z,13.03
2024-03-06T14:08:34.799Z,13.11
2024-03-06T14:11:01.398Z,13.38
2024-03-06T14:13:27.913Z,13.33
2024-03-06T14:15:54.329Z,13.21
2024-03-06T14:18:20.836Z,13.13
2024-03-06T14:20:47.301Z,12.75
2024-03-06T14:23:13.855Z,12.89
2024-03-06T14:25:40.384Z,13.18
2024-03-06T14:28:06.768Z,13.00
2024-03-06T14:30:33.219Z,12.95
2024-03-06T14:33:00.143Z,12.73
2024-03-06T14:35:26.829Z,12.98
2024-03-06T14:37:53.248Z,13.10
2024-03-06T14:40:19.637Z,12.99
2024-03-06T14:42:46.031Z,12.91
2024-03-06T14:45:12.718Z,13.20
2024-03-06T14:47:39.315Z,13.07
2024-03-06T14:50:06.434Z,12.79
2024-03-06T14:52:32.873Z,12.79
2024-03-06T14:54:59.323Z,12.72
2024-03-06T14:57:25.862Z,12.60
2024-03-06T14:59:52.945Z,12.56
2024-03-06T15:02:20.235Z,12.38
2024-03-06T15:04:46.718Z,12.57
2024-03-06T15:07:13.484Z,12.39
2024-03-06T15:09:39.910Z,12.26
2024-03-06T15:12:06.767Z,12.19
2024-03-06T15:14:39.431Z,12.32
2024-03-06T15:17:09.233Z,12.31
2024-03-06T15:19:35.881Z,12.26
2024-03-06T15:22:04.517Z,12.25
2024-03-06T15:24:31.643Z,12.04
2024-03-06T15:26:58.223Z,12.24
2024-03-06T15:29:24.720Z,12.35
2024-03-06T15:31:51.174Z,12.31
2024-03-06T15:34:18.299Z,12.35
2024-03-06T15:36:44.759Z,12.32
2024-03-06T15:39:11.181Z,12.35
2024-03-06T15:41:37.631Z,12.38
2024-03-06T15:44:04.116Z,12.36
2024-03-06T15:46:30.693Z,12.35
2024-03-06T15:48:57.116Z,12.28
2024-03-06T15:51:23.691Z,12.38
2024-03-06T15:53:52.428Z,12.14
2024-03-06T15:56:19.628Z,12.10
2024-03-06T15:58:46.050Z,11.94
2024-03-06T16:01:12.561Z,12.17
2024-03-06T16:03:38.976Z,12.07
2024-03-06T16:06:14.337Z,11.98
2024-03-06T16:08:44.832Z,12.01
2024-03-06T16:11:11.733Z,12.12
2024-03-06T16:13:38.934Z,12.29
2024-03-06T16:16:05.909Z,12.26
2024-03-06T16:18:32.359Z,12.27
2024-03-06T16:20:59.360Z,12.32
2024-03-06T16:23:25.838Z,12.35
2024-03-06T16:25:52.403Z,12.29
2024-03-06T16:28:19.737Z,12.34
2024-03-06T16:30:46.350Z,12.36
2024-03-06T16:33:12.975Z,12.38
2024-03-06T16:35:39.421Z,12.22
2024-03-06T16:38:07.108Z,12.14
2024-03-06T16:40:34.008Z,12.11
2024-03-06T16:43:00.762Z,12.18
2024-03-06T16:45:27.234Z,12.42
2024-03-06T16:47:53.809Z,12.20
2024-03-06T16:50:21.119Z,12.14
2024-03-06T16:52:47.829Z,12.23
2024-03-06T16:55:14.663Z,12.04
2024-03-06T16:57:41.141Z,11.95
2024-03-06T17:00:09.507Z,12.02
2024-03-06T17:02:36.760Z,11.93
2024-03-06T17:05:03.575Z,11.94
2024-03-06T17:07:30.369Z,12.11
2024-03-06T17:09:56.851Z,11.93
2024-03-06T17:12:23.389Z,11.93
2024-03-06T17:14:49.924Z,11.83
2024-03-06T17:17:16.449Z,12.04
2024-03-06T17:19:42.921Z,11.86
2024-03-06T17:22:09.860Z,11.71
2024-03-06T17:24:36.237Z,11.68
2024-03-06T17:27:02.697Z,11.61
2024-03-06T17:29:29.273Z,11.68
2024-03-06T17:31:55.784Z,11.48
2024-03-06T17:34:22.236Z,11.32
2024-03-06T17:36:48.672Z,11.32
2024-03-06T17:39:16.368Z,11.35
2024-03-06T17:41:46.086Z,11.36
2024-03-06T17:44:12.628Z,11.14
2024-03-06T17:46:39.089Z,11.11
2024-03-06T17:49:05.744Z,11.32
2024-03-06T17:51:33.842Z,11.38
2024-03-06T17:54:00.820Z,11.32
2024-03-06T17:56:27.423Z,11.32
2024-03-06T17:58:54.008Z,11.28
2024-03-06T18:01:26.595Z,11.25
2024-03-06T18:03:56.760Z,11.22
2024-03-06T18:06:23.300Z,11.23
2024-03-06T18:08:50.232Z,11.16
2024-03-06T18:11:16.801Z,11.03
2024-03-06T18:13:43.541Z,11.00
2024-03-06T18:16:10.774Z,10.97
2024-03-06T18:18:38.464Z,10.98
2024-03-06T18:21:06.907Z,10.95
2024-03-06T18:23:33.375Z,10.78
2024-03-06T18:26:00.456Z,10.70
2024-03-06T18:28:27.825Z,10.73
2024-03-06T18:30:54.289Z,10.62
2024-03-06T18:33:21.294Z,10.69
2024-03-06T18:35:47.901Z,10.59
2024-03-06T18:38:14.516Z,10.57
2024-03-06T18:40:40.971Z,10.51
2024-03-06T18:43:07.376Z,10.43
2024-03-06T18:45:33.838Z,10.49
2024-03-06T18:48:01.129Z,10.46
2024-03-06T18:50:29.592Z,10.46
2024-03-06T18:52:57.922Z,10.59
2024-03-06T18:55:24.323Z,10.44
2024-03-06T18:57:50.698Z,10.45
2024-03-06T19:00:17.811Z,10.27
2024-03-06T19:02:44.264Z,10.28
2024-03-06T19:05:11.193Z,10.31
2024-03-06T19:07:38.767Z,10.30
2024-03-06T19:10:06.933Z,10.26
2024-03-06T19:12:33.461Z,10.07
2024-03-06T19:15:00.040Z,10.12
2024-03-06T19:17:26.610Z,10.18
2024-03-06T19:19:53.983Z,10.10
2024-03-06T19:22:20.401Z,10.08
2024-03-06T19:24:48.241Z,10.14
2024-03-06T19:27:15.024Z,10.21
2024-03-06T19:29:41.567Z,10.09
2024-03-06T19:32:11.431Z,10.10
2024-03-06T19:34:38.110Z,10.07
2024-03-06T19:37:04.760Z,10.10
2024-03-06T19:39:32.116Z,10.05
2024-03-06T19:41:59.258Z,10.16
2024-03-06T19:44:27.962Z,10.10
2024-03-06T19:46:54.733Z,9.99
2024-03-06T19:49:21.451Z,10.17
2024-03-06T19:51:48.247Z,10.00
2024-03-06T19:54:14.850Z,10.07
2024-03-06T19:56:41.271Z,10.06
2024-03-06T19:59:08.169Z,10.23
2024-03-06T20:01:35.724Z,10.17
2024-03-06T20:04:02.581Z,10.18
2024-03-06T20:06:31.768Z,10.13
2024-03-06T20:08:59.347Z,10.04
2024-03-06T20:11:27.313Z,10.05
2024-03-06T20:13:54.220Z,9.88
2024-03-06T20:16:21.148Z,9.96
2024-03-06T20:18:49.902Z,9.97
2024-03-06T20:21:16.378Z,9.97
2024-03-06T20:23:42.861Z,10.09
2024-03-06T20:26:09.555Z,10.12
2024-03-06T20:28:36.121Z,9.89
2024-03-06T20:31:02.698Z,9.96
2024-03-06T20:33:31.202Z,10.03
2024-03-06T20:35:57.977Z,9.92
2024-03-06T20:38:25.884Z,9.96
2024-03-06T20:40:52.625Z,9.97
2024-03-06T20:43:20.709Z,9.89
2024-03-06T20:45:48.950Z,9.86
2024-03-06T20:48:15.514Z,10.08
2024-03-06T20:50:42.206Z,10.00
2024-03-06T20:53:08.897Z,10.16
2024-03-06T20:55:35.468Z,9.84
2024-03-06T20:58:02.983Z,9.83
2024-03-06T21:00:31.732Z,9.56
2024-03-06T21:02:58.337Z,9.53
2024-03-06T21:05:24.907Z,9.55
2024-03-06T21:07:51.382Z,9.50
2024-03-06T21:10:18.586Z,9.54
2024-03-06T21:12:49.033Z,9.34
2024-03-06T21:15:16.347Z,9.39
2024-03-06T21:17:43.448Z,9.53
2024-03-06T21:20:14.340Z,9.28
2024-03-06T21:22:42.393Z,9.19
2024-03-06T21:25:10.075Z,9.27
2024-03-06T21:27:37.526Z,9.21
2024-03-06T21:30:07.886Z,9.24
2024-03-06T21:32:35.093Z,9.24
2024-03-06T21:35:01.829Z,9.25
2024-03-06T21:37:29.439Z,9.30
2024-03-06T21:39:55.923Z,9.17
2024-03-06T21:42:22.791Z,9.17
2024-03-06T21:44:49.260Z,9.43
2024-03-06T21:47:15.751Z,9.45
2024-03-06T21:49:42.341Z,9.43
2024-03-06T21:52:11.950Z,9.54
2024-03-06T21:54:39.137Z,9.45
2024-03-06T21:57:08.419Z,9.33
2024-03-06T21:59:34.876Z,9.41
2024-03-06T22:02:01.530Z,9.46
2024-03-06T22:04:27.979Z,9.56
2024-03-06T22:06:54.527Z,9.62
2024-03-06T22:09:20.929Z,9.70
2024-03-06T22:11:47.473Z,9.79
2024-03-06T22:14:14.140Z,9.59
2024-03-06T22:16:41.018Z,9.59
2024-03-06T22:19:07.828Z,9.42
2024-03-06T22:21:34.258Z,9.53
2024-03-06T22:24:00.841Z,9.43
2024-03-06T22:26:27.362Z,9.43
2024-03-06T22:28:54.075Z,9.48
2024-03-06T22:31:20.677Z,9.61
2024-03-06T22:33:47.166Z,9.34
2024-03-06T22:36:17.693Z,9.45
2024-03-06T22:38:46.342Z,9.49
2024-03-06T22:41:23.044Z,9.29
2024-03-06T22:43:50.265Z,9.34
2024-03-06T22:46:17.109Z,9.30
2024-03-06T22:48:43.754Z,9.41
2024-03-06T22:51:11.960Z,9.46
2024-03-06T22:53:38.656Z,9.13
2024-03-06T22:56:05.196Z,9.17
2024-03-06T22:58:32.633Z,9.38
2024-03-06T23:00:59.124Z,9.24
2024-03-06T23:03:25.587Z,9.09
2024-03-06T23:05:52.300Z,8.93
2024-03-06T23:08:18.880Z,8.93
2024-03-06T23:10:45.383Z,8.83
2024-03-06T23:13:16.263Z,8.85
2024-03-06T23:15:43.539Z,8.76
2024-03-06T23:18:10.852Z,8.72
2024-03-06T23:20:37.582Z,8.79
2024-03-06T23:23:04.830Z,8.65
2024-03-06T23:25:32.042Z,8.64
2024-03-06T23:27:59.006Z,8.73
2024-03-06T23:30:26.578Z,8.67
2024-03-06T23:32:53.292Z,8.64
2024-03-06T23:35:20.205Z,8.38
2024-03-06T23:37:46.767Z,8.40
2024-03-06T23:40:15.001Z,8.37
2024-03-06T23:42:43.536Z,8.35
2024-03-06T23:45:11.705Z,8.31
2024-03-06T23:47:39.524Z,8.23
2024-03-06T23:50:07.379Z,8.14
2024-03-06T23:52:33.872Z,8.05
2024-03-06T23:55:01.012Z,8.11
2024-03-06T23:57:28.147Z,8.20
2024-03-06T23:59:55.210Z,8.23
